This is the latest recevied weather packets stored in our database for station/object JA7ZQY-10. If no packets are shown the sender has not sent any weather packets the latest 10 day(s).
| Time | Temp. | Humidity | Pressure | Rain* | Wind** | Luminosity | Snow |
|---|---|---|---|---|---|---|---|
| 1777853691 | 18.89° C | 70% | 993.7 hPa | 0 mm | - | - | - |
| 1777853090 | 19.44° C | 70% | 993.7 hPa | 0 mm | - | - | - |
| 1777852491 | 18.33° C | 73% | 993.8 hPa | 0 mm | - | - | - |
| 1777851890 | 18.33° C | 78% | 994.1 hPa | 0 mm | - | - | - |
| 1777851291 | 16.11° C | 87% | 994.4 hPa | 0 mm | - | - | - |
| 1777850691 | 15° C | 86% | 994.2 hPa | 0 mm | - | - | - |
| 1777850090 | 14.44° C | 89% | 994.5 hPa | 0 mm | - | - | - |
| 1777849490 | 13.33° C | 88% | 994.4 hPa | 0 mm | - | - | - |
| 1777848891 | 13.33° C | 88% | 994.6 hPa | 0 mm | - | - | - |
| 1777848291 | 13.33° C | 90% | 994.9 hPa | 0 mm | - | - | - |
| 1777847690 | 13.33° C | 92% | 994.7 hPa | 0.25 mm | - | - | - |
| 1777847090 | 13.33° C | 94% | 994.8 hPa | 0.25 mm | - | - | - |
| 1777846490 | 13.33° C | 97% | 994.8 hPa | 0.25 mm | - | - | - |
| 1777845890 | 12.78° C | 99% | 995.3 hPa | 0.25 mm | - | - | - |
| 1777845292 | 12.22° C | 99% | 995.3 hPa | 0.25 mm | - | - | - |
| 1777844691 | 12.22° C | 99% | 995.6 hPa | 0.25 mm | - | - | - |
| 1777844092 | 11.67° C | 99% | 995.9 hPa | 0 mm | - | - | - |
| 1777843490 | 11.67° C | 99% | 996.1 hPa | 0 mm | - | - | - |
| 1777842890 | 11.67° C | 99% | 996 hPa | 0 mm | - | - | - |
| 1777842289 | 11.67° C | 99% | 996.4 hPa | 0 mm | - | - | - |
| 1777841689 | 11.67° C | 99% | 996.3 hPa | 0 mm | - | - | - |
| 1777841090 | 11.67° C | 99% | 996.6 hPa | 0 mm | - | - | - |
| 1777840491 | 11.67° C | 99% | 996.6 hPa | 0 mm | - | - | - |
| 1777839890 | 11.67° C | 99% | 996.5 hPa | 0 mm | - | - | - |
| 1777839289 | 11.67° C | 99% | 996.7 hPa | 0 mm | - | - | - |
* Rain latest hour (hover to see other rain measurements)
** Current wind speed in m/s (hover to see current wind gust speed)